Terminal Aerodrome Forecast
Issued by NWS

Home | Current Version | Previous Version | Text Only | Print | Product List | Glossary On
Versions: 1 2 3 4 5 6 7 8 9 10 11 12 13 14 15 16 17 18 19 20 21 22 23 24 25
000
FTUS46 KSGX 192300
TAFSAN
TAF
KSAN 192329Z 2000/2106 30006KT P6SM SCT030 BKN200
     FM200300 VRB04KT P6SM SCT030 BKN200
      TEMPO 2006/2010 BKN025
     FM201900 28008KT P6SM SCT025 SCT200
     FM210200 VRB03KT P6SM SCT025=

USA.gov is the U.S. government's official web portal to all federal, state and local government web resources and services.